sensor_id;sensor_type;location;lat;lon;timestamp;temperature;humidity
3550;DHT22;45572;48.804;8.330;2023-06-26T00:01:18;19.60;77.20
3550;DHT22;45572;48.804;8.330;2023-06-26T00:03:48;19.50;77.40
3550;DHT22;45572;48.804;8.330;2023-06-26T00:06:16;19.50;77.50
3550;DHT22;45572;48.804;8.330;2023-06-26T00:08:44;19.50;77.60
3550;DHT22;45572;48.804;8.330;2023-06-26T00:11:12;19.40;77.30
3550;DHT22;45572;48.804;8.330;2023-06-26T00:13:40;19.40;77.90
3550;DHT22;45572;48.804;8.330;2023-06-26T00:16:08;19.40;77.30
3550;DHT22;45572;48.804;8.330;2023-06-26T00:18:36;19.50;77.50
3550;DHT22;45572;48.804;8.330;2023-06-26T00:21:05;19.40;77.20
3550;DHT22;45572;48.804;8.330;2023-06-26T00:23:33;19.40;77.70
3550;DHT22;45572;48.804;8.330;2023-06-26T00:26:06;19.40;77.40
3550;DHT22;45572;48.804;8.330;2023-06-26T00:28:33;19.40;77.20
3550;DHT22;45572;48.804;8.330;2023-06-26T00:31:02;19.40;77.50
3550;DHT22;45572;48.804;8.330;2023-06-26T00:33:30;19.40;77.90
3550;DHT22;45572;48.804;8.330;2023-06-26T00:35:58;19.30;78.30
3550;DHT22;45572;48.804;8.330;2023-06-26T00:38:27;19.20;78.70
3550;DHT22;45572;48.804;8.330;2023-06-26T00:40:57;19.10;78.60
3550;DHT22;45572;48.804;8.330;2023-06-26T00:43:25;19.00;78.60
3550;DHT22;45572;48.804;8.330;2023-06-26T00:45:52;19.00;78.20
3550;DHT22;45572;48.804;8.330;2023-06-26T00:48:20;19.00;77.70
3550;DHT22;45572;48.804;8.330;2023-06-26T00:50:50;19.00;78.30
3550;DHT22;45572;48.804;8.330;2023-06-26T00:53:18;19.10;77.90
3550;DHT22;45572;48.804;8.330;2023-06-26T00:55:47;19.10;78.20
3550;DHT22;45572;48.804;8.330;2023-06-26T00:58:15;19.10;78.10
3550;DHT22;45572;48.804;8.330;2023-06-26T01:00:43;19.10;77.90
3550;DHT22;45572;48.804;8.330;2023-06-26T01:03:12;19.20;77.60
3550;DHT22;45572;48.804;8.330;2023-06-26T01:05:40;19.10;77.90
3550;DHT22;45572;48.804;8.330;2023-06-26T01:08:13;19.10;78.40
3550;DHT22;45572;48.804;8.330;2023-06-26T01:10:41;19.00;79.10
3550;DHT22;45572;48.804;8.330;2023-06-26T01:13:11;18.90;79.50
3550;DHT22;45572;48.804;8.330;2023-06-26T01:15:40;18.80;79.60
3550;DHT22;45572;48.804;8.330;2023-06-26T01:18:08;18.70;79.40
3550;DHT22;45572;48.804;8.330;2023-06-26T01:20:37;18.60;80.10
3550;DHT22;45572;48.804;8.330;2023-06-26T01:23:14;18.50;80.40
3550;DHT22;45572;48.804;8.330;2023-06-26T01:28:30;18.40;79.80
3550;DHT22;45572;48.804;8.330;2023-06-26T01:30:59;18.30;80.00
3550;DHT22;45572;48.804;8.330;2023-06-26T01:33:30;18.40;79.20
3550;DHT22;45572;48.804;8.330;2023-06-26T01:35:58;18.50;79.70
3550;DHT22;45572;48.804;8.330;2023-06-26T01:38:27;18.50;79.80
3550;DHT22;45572;48.804;8.330;2023-06-26T01:40:57;18.50;79.90
3550;DHT22;45572;48.804;8.330;2023-06-26T01:43:29;18.30;80.20
3550;DHT22;45572;48.804;8.330;2023-06-26T01:46:03;18.20;81.00
3550;DHT22;45572;48.804;8.330;2023-06-26T01:48:36;18.10;80.40
3550;DHT22;45572;48.804;8.330;2023-06-26T01:51:07;18.00;81.40
3550;DHT22;45572;48.804;8.330;2023-06-26T01:53:39;18.00;81.90
3550;DHT22;45572;48.804;8.330;2023-06-26T01:56:16;18.00;81.70
3550;DHT22;45572;48.804;8.330;2023-06-26T01:58:47;17.90;81.60
3550;DHT22;45572;48.804;8.330;2023-06-26T02:01:16;18.00;81.40
3550;DHT22;45572;48.804;8.330;2023-06-26T02:03:45;18.00;81.60
3550;DHT22;45572;48.804;8.330;2023-06-26T02:06:13;18.00;81.80
3550;DHT22;45572;48.804;8.330;2023-06-26T02:08:41;17.80;82.00
3550;DHT22;45572;48.804;8.330;2023-06-26T02:11:09;17.90;82.20
3550;DHT22;45572;48.804;8.330;2023-06-26T02:13:39;17.90;82.10
3550;DHT22;45572;48.804;8.330;2023-06-26T02:16:08;17.80;82.20
3550;DHT22;45572;48.804;8.330;2023-06-26T02:18:36;17.90;82.30
3550;DHT22;45572;48.804;8.330;2023-06-26T02:21:04;17.80;82.00
3550;DHT22;45572;48.804;8.330;2023-06-26T02:23:32;17.70;82.30
3550;DHT22;45572;48.804;8.330;2023-06-26T02:26:00;17.80;82.30
3550;DHT22;45572;48.804;8.330;2023-06-26T02:28:28;17.80;82.00
3550;DHT22;45572;48.804;8.330;2023-06-26T02:30:57;17.80;81.90
3550;DHT22;45572;48.804;8.330;2023-06-26T02:33:26;17.80;82.10
3550;DHT22;45572;48.804;8.330;2023-06-26T02:35:54;17.80;82.10
3550;DHT22;45572;48.804;8.330;2023-06-26T02:38:22;17.80;82.00
3550;DHT22;45572;48.804;8.330;2023-06-26T02:40:49;17.80;82.10
3550;DHT22;45572;48.804;8.330;2023-06-26T02:43:17;17.80;82.40
3550;DHT22;45572;48.804;8.330;2023-06-26T02:45:46;17.80;82.40
3550;DHT22;45572;48.804;8.330;2023-06-26T02:48:14;17.60;82.30
3550;DHT22;45572;48.804;8.330;2023-06-26T02:50:44;17.60;82.40
3550;DHT22;45572;48.804;8.330;2023-06-26T02:53:14;17.60;82.80
3550;DHT22;45572;48.804;8.330;2023-06-26T02:55:44;17.60;82.90
3550;DHT22;45572;48.804;8.330;2023-06-26T02:58:15;17.50;82.80
3550;DHT22;45572;48.804;8.330;2023-06-26T03:00:43;17.50;83.00
3550;DHT22;45572;48.804;8.330;2023-06-26T03:03:15;17.50;83.20
3550;DHT22;45572;48.804;8.330;2023-06-26T03:05:44;17.50;83.00
3550;DHT22;45572;48.804;8.330;2023-06-26T03:08:12;17.50;82.60
3550;DHT22;45572;48.804;8.330;2023-06-26T03:10:40;17.60;82.70
3550;DHT22;45572;48.804;8.330;2023-06-26T03:13:09;17.50;82.90
3550;DHT22;45572;48.804;8.330;2023-06-26T03:15:37;17.50;83.00
3550;DHT22;45572;48.804;8.330;2023-06-26T03:18:05;17.50;83.30
3550;DHT22;45572;48.804;8.330;2023-06-26T03:20:33;17.50;83.40
3550;DHT22;45572;48.804;8.330;2023-06-26T03:23:02;17.50;83.30
3550;DHT22;45572;48.804;8.330;2023-06-26T03:25:30;17.40;83.20
3550;DHT22;45572;48.804;8.330;2023-06-26T03:28:11;17.40;83.40
3550;DHT22;45572;48.804;8.330;2023-06-26T03:30:39;17.40;83.40
3550;DHT22;45572;48.804;8.330;2023-06-26T03:33:07;17.40;82.90
3550;DHT22;45572;48.804;8.330;2023-06-26T03:35:35;17.40;83.00
3550;DHT22;45572;48.804;8.330;2023-06-26T03:38:05;17.40;82.70
3550;DHT22;45572;48.804;8.330;2023-06-26T03:40:33;17.50;82.50
3550;DHT22;45572;48.804;8.330;2023-06-26T03:43:01;17.70;82.00
3550;DHT22;45572;48.804;8.330;2023-06-26T03:45:38;17.70;81.70
3550;DHT22;45572;48.804;8.330;2023-06-26T03:48:05;17.80;82.00
3550;DHT22;45572;48.804;8.330;2023-06-26T03:50:36;17.80;81.80
3550;DHT22;45572;48.804;8.330;2023-06-26T03:53:05;17.80;81.90
3550;DHT22;45572;48.804;8.330;2023-06-26T03:55:33;17.80;81.80
3550;DHT22;45572;48.804;8.330;2023-06-26T03:58:03;17.90;81.80
3550;DHT22;45572;48.804;8.330;2023-06-26T04:00:31;17.90;81.00
3550;DHT22;45572;48.804;8.330;2023-06-26T04:02:59;17.90;81.90
3550;DHT22;45572;48.804;8.330;2023-06-26T04:05:29;18.00;82.00
3550;DHT22;45572;48.804;8.330;2023-06-26T04:07:57;17.90;81.90
3550;DHT22;45572;48.804;8.330;2023-06-26T04:10:26;17.80;82.20
3550;DHT22;45572;48.804;8.330;2023-06-26T04:12:54;17.90;82.00
3550;DHT22;45572;48.804;8.330;2023-06-26T04:15:22;17.90;82.50
3550;DHT22;45572;48.804;8.330;2023-06-26T04:17:50;17.80;82.60
3550;DHT22;45572;48.804;8.330;2023-06-26T04:20:19;17.70;82.50
3550;DHT22;45572;48.804;8.330;2023-06-26T04:22:47;17.90;82.00
3550;DHT22;45572;48.804;8.330;2023-06-26T04:25:15;17.90;82.70
3550;DHT22;45572;48.804;8.330;2023-06-26T04:27:44;17.90;82.40
3550;DHT22;45572;48.804;8.330;2023-06-26T04:30:12;17.90;82.30
3550;DHT22;45572;48.804;8.330;2023-06-26T04:32:40;18.00;81.90
3550;DHT22;45572;48.804;8.330;2023-06-26T04:35:08;18.10;80.60
3550;DHT22;45572;48.804;8.330;2023-06-26T04:37:36;18.30;81.10
3550;DHT22;45572;48.804;8.330;2023-06-26T04:40:06;18.40;81.00
3550;DHT22;45572;48.804;8.330;2023-06-26T04:42:36;18.50;79.90
3550;DHT22;45572;48.804;8.330;2023-06-26T04:45:05;18.60;80.50
3550;DHT22;45572;48.804;8.330;2023-06-26T04:47:35;18.70;81.00
3550;DHT22;45572;48.804;8.330;2023-06-26T04:50:04;18.70;81.10
3550;DHT22;45572;48.804;8.330;2023-06-26T04:52:33;18.80;81.30
3550;DHT22;45572;48.804;8.330;2023-06-26T04:55:01;18.80;81.30
3550;DHT22;45572;48.804;8.330;2023-06-26T04:57:29;18.90;81.40
3550;DHT22;45572;48.804;8.330;2023-06-26T04:59:57;18.90;81.70
3550;DHT22;45572;48.804;8.330;2023-06-26T05:02:27;18.80;81.90
3550;DHT22;45572;48.804;8.330;2023-06-26T05:04:55;18.80;82.30
3550;DHT22;45572;48.804;8.330;2023-06-26T05:07:23;18.90;81.70
3550;DHT22;45572;48.804;8.330;2023-06-26T05:09:51;19.00;80.50
3550;DHT22;45572;48.804;8.330;2023-06-26T05:12:19;19.10;82.40
3550;DHT22;45572;48.804;8.330;2023-06-26T05:14:46;19.20;82.40
3550;DHT22;45572;48.804;8.330;2023-06-26T05:17:15;19.30;81.50
3550;DHT22;45572;48.804;8.330;2023-06-26T05:19:44;19.50;81.40
3550;DHT22;45572;48.804;8.330;2023-06-26T05:22:12;19.70;79.50
3550;DHT22;45572;48.804;8.330;2023-06-26T05:24:42;19.90;78.60
3550;DHT22;45572;48.804;8.330;2023-06-26T05:27:14;20.20;77.60
3550;DHT22;45572;48.804;8.330;2023-06-26T05:29:48;20.50;78.30
3550;DHT22;45572;48.804;8.330;2023-06-26T05:32:17;20.80;78.30
3550;DHT22;45572;48.804;8.330;2023-06-26T05:34:48;21.00;78.60
3550;DHT22;45572;48.804;8.330;2023-06-26T05:37:20;21.20;79.10
3550;DHT22;45572;48.804;8.330;2023-06-26T05:39:49;21.40;78.60
3550;DHT22;45572;48.804;8.330;2023-06-26T05:42:17;21.60;78.20
3550;DHT22;45572;48.804;8.330;2023-06-26T05:44:46;21.80;77.80
3550;DHT22;45572;48.804;8.330;2023-06-26T05:47:15;22.00;77.00
3550;DHT22;45572;48.804;8.330;2023-06-26T05:49:48;22.30;77.30
3550;DHT22;45572;48.804;8.330;2023-06-26T05:52:17;22.50;76.70
3550;DHT22;45572;48.804;8.330;2023-06-26T05:54:45;22.80;75.30
3550;DHT22;45572;48.804;8.330;2023-06-26T05:57:16;23.10;74.50
3550;DHT22;45572;48.804;8.330;2023-06-26T05:59:49;23.50;71.80
3550;DHT22;45572;48.804;8.330;2023-06-26T06:02:17;23.70;74.00
3550;DHT22;45572;48.804;8.330;2023-06-26T06:04:47;24.30;72.80
3550;DHT22;45572;48.804;8.330;2023-06-26T06:07:15;25.00;71.90
3550;DHT22;45572;48.804;8.330;2023-06-26T06:09:43;26.00;69.50
3550;DHT22;45572;48.804;8.330;2023-06-26T06:12:11;27.00;65.90
3550;DHT22;45572;48.804;8.330;2023-06-26T06:14:39;28.00;63.20
3550;DHT22;45572;48.804;8.330;2023-06-26T06:17:06;29.00;58.70
3550;DHT22;45572;48.804;8.330;2023-06-26T06:19:34;29.60;57.90
3550;DHT22;45572;48.804;8.330;2023-06-26T06:22:03;30.10;56.90
3550;DHT22;45572;48.804;8.330;2023-06-26T06:24:31;29.40;58.20
3550;DHT22;45572;48.804;8.330;2023-06-26T06:26:59;30.20;56.20
3550;DHT22;45572;48.804;8.330;2023-06-26T06:29:27;30.80;56.10
3550;DHT22;45572;48.804;8.330;2023-06-26T06:31:57;31.90;54.80
3550;DHT22;45572;48.804;8.330;2023-06-26T06:34:25;32.90;52.80
3550;DHT22;45572;48.804;8.330;2023-06-26T06:36:53;33.80;50.90
3550;DHT22;45572;48.804;8.330;2023-06-26T06:39:24;34.40;47.10
3550;DHT22;45572;48.804;8.330;2023-06-26T06:41:51;35.10;45.20
3550;DHT22;45572;48.804;8.330;2023-06-26T06:44:20;35.70;44.70
3550;DHT22;45572;48.804;8.330;2023-06-26T06:46:48;36.50;43.60
3550;DHT22;45572;48.804;8.330;2023-06-26T06:49:18;37.10;42.70
3550;DHT22;45572;48.804;8.330;2023-06-26T06:51:47;37.30;42.80
3550;DHT22;45572;48.804;8.330;2023-06-26T06:54:18;37.60;42.80
3550;DHT22;45572;48.804;8.330;2023-06-26T06:56:49;38.20;42.40
3550;DHT22;45572;48.804;8.330;2023-06-26T06:59:21;38.50;42.70
3550;DHT22;45572;48.804;8.330;2023-06-26T07:01:48;38.90;41.60
3550;DHT22;45572;48.804;8.330;2023-06-26T07:04:19;39.30;41.40
3550;DHT22;45572;48.804;8.330;2023-06-26T07:06:46;39.50;41.60
3550;DHT22;45572;48.804;8.330;2023-06-26T07:09:15;39.60;41.30
3550;DHT22;45572;48.804;8.330;2023-06-26T07:11:44;39.70;40.60
3550;DHT22;45572;48.804;8.330;2023-06-26T07:14:15;39.70;41.10
3550;DHT22;45572;48.804;8.330;2023-06-26T07:16:43;39.10;40.40
3550;DHT22;45572;48.804;8.330;2023-06-26T07:19:10;39.30;41.80
3550;DHT22;45572;48.804;8.330;2023-06-26T07:21:39;39.70;41.70
3550;DHT22;45572;48.804;8.330;2023-06-26T07:24:09;40.30;40.40
3550;DHT22;45572;48.804;8.330;2023-06-26T07:26:38;40.70;40.00
3550;DHT22;45572;48.804;8.330;2023-06-26T07:29:13;41.20;39.00
3550;DHT22;45572;48.804;8.330;2023-06-26T07:31:42;41.60;39.30
3550;DHT22;45572;48.804;8.330;2023-06-26T07:34:12;42.00;38.60
3550;DHT22;45572;48.804;8.330;2023-06-26T07:36:40;42.40;38.00
3550;DHT22;45572;48.804;8.330;2023-06-26T07:39:08;42.70;37.80
3550;DHT22;45572;48.804;8.330;2023-06-26T07:41:40;42.80;36.90
3550;DHT22;45572;48.804;8.330;2023-06-26T07:44:08;43.10;35.60
3550;DHT22;45572;48.804;8.330;2023-06-26T07:46:35;43.20;37.10
3550;DHT22;45572;48.804;8.330;2023-06-26T07:49:04;43.30;35.50
3550;DHT22;45572;48.804;8.330;2023-06-26T07:51:32;42.60;35.70
3550;DHT22;45572;48.804;8.330;2023-06-26T07:54:00;42.00;36.20
3550;DHT22;45572;48.804;8.330;2023-06-26T07:56:28;42.00;36.00
3550;DHT22;45572;48.804;8.330;2023-06-26T07:58:56;41.50;37.20
3550;DHT22;45572;48.804;8.330;2023-06-26T08:01:24;41.40;37.00
3550;DHT22;45572;48.804;8.330;2023-06-26T08:03:52;41.50;36.60
3550;DHT22;45572;48.804;8.330;2023-06-26T08:06:22;42.20;37.40
3550;DHT22;45572;48.804;8.330;2023-06-26T08:08:50;42.30;36.90
3550;DHT22;45572;48.804;8.330;2023-06-26T08:11:19;42.60;36.50
3550;DHT22;45572;48.804;8.330;2023-06-26T08:13:47;42.10;36.20
3550;DHT22;45572;48.804;8.330;2023-06-26T08:16:15;41.80;37.60
3550;DHT22;45572;48.804;8.330;2023-06-26T08:18:44;42.40;36.60
3550;DHT22;45572;48.804;8.330;2023-06-26T08:21:12;42.30;37.40
3550;DHT22;45572;48.804;8.330;2023-06-26T08:23:41;42.00;36.90
3550;DHT22;45572;48.804;8.330;2023-06-26T08:26:14;42.00;36.40
3550;DHT22;45572;48.804;8.330;2023-06-26T08:28:42;40.40;38.50
3550;DHT22;45572;48.804;8.330;2023-06-26T08:31:11;40.50;38.40
3550;DHT22;45572;48.804;8.330;2023-06-26T08:33:41;39.90;38.20
3550;DHT22;45572;48.804;8.330;2023-06-26T08:36:09;38.10;42.00
3550;DHT22;45572;48.804;8.330;2023-06-26T08:38:37;38.20;41.70
3550;DHT22;45572;48.804;8.330;2023-06-26T08:41:10;38.10;42.30
3550;DHT22;45572;48.804;8.330;2023-06-26T08:43:38;37.80;41.90
3550;DHT22;45572;48.804;8.330;2023-06-26T08:46:07;37.00;43.60
3550;DHT22;45572;48.804;8.330;2023-06-26T08:48:37;35.90;45.30
3550;DHT22;45572;48.804;8.330;2023-06-26T08:51:09;35.60;45.90
3550;DHT22;45572;48.804;8.330;2023-06-26T08:53:46;35.30;45.90
3550;DHT22;45572;48.804;8.330;2023-06-26T08:56:17;34.30;47.80
3550;DHT22;45572;48.804;8.330;2023-06-26T08:58:51;33.50;49.20
3550;DHT22;45572;48.804;8.330;2023-06-26T09:01:20;33.20;49.90
3550;DHT22;45572;48.804;8.330;2023-06-26T09:03:51;32.50;51.20
3550;DHT22;45572;48.804;8.330;2023-06-26T09:06:20;32.50;52.30
3550;DHT22;45572;48.804;8.330;2023-06-26T09:08:48;31.90;52.40
3550;DHT22;45572;48.804;8.330;2023-06-26T09:11:17;32.00;53.50
3550;DHT22;45572;48.804;8.330;2023-06-26T09:13:46;31.90;52.20
3550;DHT22;45572;48.804;8.330;2023-06-26T09:16:17;32.00;53.90
3550;DHT22;45572;48.804;8.330;2023-06-26T09:18:45;31.60;53.10
3550;DHT22;45572;48.804;8.330;2023-06-26T09:21:15;32.50;52.40
3550;DHT22;45572;48.804;8.330;2023-06-26T09:23:43;33.20;51.80
3550;DHT22;45572;48.804;8.330;2023-06-26T09:26:14;33.60;50.50
3550;DHT22;45572;48.804;8.330;2023-06-26T09:28:46;34.50;49.90
3550;DHT22;45572;48.804;8.330;2023-06-26T09:31:18;35.60;47.40
3550;DHT22;45572;48.804;8.330;2023-06-26T09:34:07;35.40;47.70
3550;DHT22;45572;48.804;8.330;2023-06-26T09:36:34;33.90;48.80
3550;DHT22;45572;48.804;8.330;2023-06-26T09:39:07;32.50;52.10
3550;DHT22;45572;48.804;8.330;2023-06-26T09:41:41;32.80;53.70
3550;DHT22;45572;48.804;8.330;2023-06-26T09:44:13;33.00;52.60
3550;DHT22;45572;48.804;8.330;2023-06-26T09:46:45;32.60;52.10
3550;DHT22;45572;48.804;8.330;2023-06-26T09:49:13;32.60;52.90
3550;DHT22;45572;48.804;8.330;2023-06-26T09:51:44;32.50;53.40
3550;DHT22;45572;48.804;8.330;2023-06-26T09:54:12;32.70;54.10
3550;DHT22;45572;48.804;8.330;2023-06-26T09:56:47;32.90;52.50
3550;DHT22;45572;48.804;8.330;2023-06-26T09:59:17;32.90;52.90
3550;DHT22;45572;48.804;8.330;2023-06-26T10:01:47;33.70;52.80
3550;DHT22;45572;48.804;8.330;2023-06-26T10:04:17;34.10;49.80
3550;DHT22;45572;48.804;8.330;2023-06-26T10:06:46;34.30;51.60
3550;DHT22;45572;48.804;8.330;2023-06-26T10:09:17;33.50;51.00
3550;DHT22;45572;48.804;8.330;2023-06-26T10:11:49;33.40;51.20
3550;DHT22;45572;48.804;8.330;2023-06-26T10:14:25;33.10;52.30
3550;DHT22;45572;48.804;8.330;2023-06-26T10:16:57;32.20;52.60
3550;DHT22;45572;48.804;8.330;2023-06-26T10:19:27;31.80;55.70
3550;DHT22;45572;48.804;8.330;2023-06-26T10:21:58;31.30;54.50
3550;DHT22;45572;48.804;8.330;2023-06-26T10:24:32;31.30;55.70
3550;DHT22;45572;48.804;8.330;2023-06-26T10:27:07;31.30;55.00
3550;DHT22;45572;48.804;8.330;2023-06-26T10:29:40;31.00;55.70
3550;DHT22;45572;48.804;8.330;2023-06-26T10:32:13;30.70;56.80
3550;DHT22;45572;48.804;8.330;2023-06-26T10:34:42;30.50;57.20
3550;DHT22;45572;48.804;8.330;2023-06-26T10:37:12;30.30;57.40
3550;DHT22;45572;48.804;8.330;2023-06-26T10:39:48;30.20;58.30
3550;DHT22;45572;48.804;8.330;2023-06-26T10:42:17;30.50;58.10
3550;DHT22;45572;48.804;8.330;2023-06-26T10:44:47;30.30;57.60
3550;DHT22;45572;48.804;8.330;2023-06-26T10:47:29;30.10;58.30
3550;DHT22;45572;48.804;8.330;2023-06-26T10:50:16;30.40;58.80
3550;DHT22;45572;48.804;8.330;2023-06-26T10:53:12;31.70;55.40
3550;DHT22;45572;48.804;8.330;2023-06-26T10:55:42;33.40;52.10
3550;DHT22;45572;48.804;8.330;2023-06-26T10:58:27;35.20;49.80
3550;DHT22;45572;48.804;8.330;2023-06-26T11:01:16;35.40;47.70
3550;DHT22;45572;48.804;8.330;2023-06-26T11:03:46;36.80;48.20
3550;DHT22;45572;48.804;8.330;2023-06-26T11:06:19;37.00;45.00
3550;DHT22;45572;48.804;8.330;2023-06-26T11:08:52;37.50;46.30
3550;DHT22;45572;48.804;8.330;2023-06-26T11:14:33;37.80;45.80
3550;DHT22;45572;48.804;8.330;2023-06-26T11:17:05;36.90;44.00
3550;DHT22;45572;48.804;8.330;2023-06-26T11:19:33;35.60;46.40
3550;DHT22;45572;48.804;8.330;2023-06-26T11:22:02;35.50;47.30
3550;DHT22;45572;48.804;8.330;2023-06-26T11:24:31;35.80;48.30
3550;DHT22;45572;48.804;8.330;2023-06-26T11:27:00;37.10;44.90
3550;DHT22;45572;48.804;8.330;2023-06-26T11:29:31;36.80;44.00
3550;DHT22;45572;48.804;8.330;2023-06-26T11:32:02;36.80;45.90
3550;DHT22;45572;48.804;8.330;2023-06-26T11:34:37;35.80;44.20
3550;DHT22;45572;48.804;8.330;2023-06-26T11:37:06;35.70;45.90
3550;DHT22;45572;48.804;8.330;2023-06-26T11:39:41;36.70;44.80
3550;DHT22;45572;48.804;8.330;2023-06-26T11:42:11;36.20;42.80
3550;DHT22;45572;48.804;8.330;2023-06-26T11:44:41;35.40;44.40
3550;DHT22;45572;48.804;8.330;2023-06-26T11:47:12;34.90;44.90
3550;DHT22;45572;48.804;8.330;2023-06-26T11:49:47;35.10;45.00
3550;DHT22;45572;48.804;8.330;2023-06-26T11:52:17;35.80;44.40
3550;DHT22;45572;48.804;8.330;2023-06-26T11:54:49;37.00;42.00
3550;DHT22;45572;48.804;8.330;2023-06-26T11:57:17;36.80;42.60
3550;DHT22;45572;48.804;8.330;2023-06-26T11:59:45;36.00;41.60
3550;DHT22;45572;48.804;8.330;2023-06-26T12:02:14;36.40;43.40
3550;DHT22;45572;48.804;8.330;2023-06-26T12:04:45;36.00;42.60
3550;DHT22;45572;48.804;8.330;2023-06-26T12:07:16;35.40;43.70
3550;DHT22;45572;48.804;8.330;2023-06-26T12:09:46;36.10;44.70
3550;DHT22;45572;48.804;8.330;2023-06-26T12:12:17;37.10;41.90
3550;DHT22;45572;48.804;8.330;2023-06-26T12:14:47;37.70;40.30
3550;DHT22;45572;48.804;8.330;2023-06-26T12:17:16;36.00;42.30
3550;DHT22;45572;48.804;8.330;2023-06-26T12:19:47;35.30;42.20
3550;DHT22;45572;48.804;8.330;2023-06-26T12:22:18;35.30;42.20
3550;DHT22;45572;48.804;8.330;2023-06-26T12:24:47;35.50;43.20
3550;DHT22;45572;48.804;8.330;2023-06-26T12:27:18;36.10;43.50
3550;DHT22;45572;48.804;8.330;2023-06-26T12:29:50;36.70;41.00
3550;DHT22;45572;48.804;8.330;2023-06-26T12:32:19;37.60;42.20
3550;DHT22;45572;48.804;8.330;2023-06-26T12:34:49;37.30;40.30
3550;DHT22;45572;48.804;8.330;2023-06-26T12:37:20;37.10;40.50
3550;DHT22;45572;48.804;8.330;2023-06-26T12:39:51;37.00;40.00
3550;DHT22;45572;48.804;8.330;2023-06-26T12:42:19;36.30;41.50
3550;DHT22;45572;48.804;8.330;2023-06-26T12:44:49;35.40;42.10
3550;DHT22;45572;48.804;8.330;2023-06-26T12:47:25;34.90;42.70
3550;DHT22;45572;48.804;8.330;2023-06-26T12:49:54;35.30;43.40
3550;DHT22;45572;48.804;8.330;2023-06-26T12:52:24;36.00;43.60
3550;DHT22;45572;48.804;8.330;2023-06-26T12:54:53;36.00;42.30
3550;DHT22;45572;48.804;8.330;2023-06-26T12:57:22;35.90;42.50
3550;DHT22;45572;48.804;8.330;2023-06-26T12:59:51;35.90;42.60
3550;DHT22;45572;48.804;8.330;2023-06-26T13:02:19;35.80;42.40
3550;DHT22;45572;48.804;8.330;2023-06-26T13:04:48;34.50;43.60
3550;DHT22;45572;48.804;8.330;2023-06-26T13:07:18;33.20;45.50
3550;DHT22;45572;48.804;8.330;2023-06-26T13:09:46;32.70;46.70
3550;DHT22;45572;48.804;8.330;2023-06-26T13:12:15;32.40;47.60
3550;DHT22;45572;48.804;8.330;2023-06-26T13:14:42;32.50;47.10
3550;DHT22;45572;48.804;8.330;2023-06-26T13:17:11;32.40;48.40
3550;DHT22;45572;48.804;8.330;2023-06-26T13:19:39;32.40;50.90
3550;DHT22;45572;48.804;8.330;2023-06-26T13:22:08;32.50;49.30
3550;DHT22;45572;48.804;8.330;2023-06-26T13:24:42;32.30;48.80
3550;DHT22;45572;48.804;8.330;2023-06-26T13:27:10;32.10;47.80
3550;DHT22;45572;48.804;8.330;2023-06-26T13:29:38;32.20;48.90
3550;DHT22;45572;48.804;8.330;2023-06-26T13:32:06;32.20;49.30
3550;DHT22;45572;48.804;8.330;2023-06-26T13:34:35;32.30;50.60
3550;DHT22;45572;48.804;8.330;2023-06-26T13:37:03;32.20;50.90
3550;DHT22;45572;48.804;8.330;2023-06-26T13:39:31;32.30;48.80
3550;DHT22;45572;48.804;8.330;2023-06-26T13:42:01;32.20;51.50
3550;DHT22;45572;48.804;8.330;2023-06-26T13:44:33;32.00;48.90
3550;DHT22;45572;48.804;8.330;2023-06-26T13:47:20;31.60;48.70
3550;DHT22;45572;48.804;8.330;2023-06-26T13:49:48;31.60;49.10
3550;DHT22;45572;48.804;8.330;2023-06-26T13:52:16;31.30;48.20
3550;DHT22;45572;48.804;8.330;2023-06-26T13:54:47;31.00;49.70
3550;DHT22;45572;48.804;8.330;2023-06-26T13:57:17;30.90;50.70
3550;DHT22;45572;48.804;8.330;2023-06-26T13:59:47;30.80;49.20
3550;DHT22;45572;48.804;8.330;2023-06-26T14:02:15;30.90;51.30
3550;DHT22;45572;48.804;8.330;2023-06-26T14:04:43;31.10;50.40
3550;DHT22;45572;48.804;8.330;2023-06-26T14:07:11;31.30;48.80
3550;DHT22;45572;48.804;8.330;2023-06-26T14:09:42;31.40;48.80
3550;DHT22;45572;48.804;8.330;2023-06-26T14:12:13;31.20;48.50
3550;DHT22;45572;48.804;8.330;2023-06-26T14:14:43;31.30;49.30
3550;DHT22;45572;48.804;8.330;2023-06-26T14:17:11;31.30;47.80
3550;DHT22;45572;48.804;8.330;2023-06-26T14:19:46;31.10;47.60
3550;DHT22;45572;48.804;8.330;2023-06-26T14:22:14;31.00;49.00
3550;DHT22;45572;48.804;8.330;2023-06-26T14:24:42;30.80;48.80
3550;DHT22;45572;48.804;8.330;2023-06-26T14:27:11;30.70;48.90
3550;DHT22;45572;48.804;8.330;2023-06-26T14:29:40;30.70;48.90
3550;DHT22;45572;48.804;8.330;2023-06-26T14:32:11;30.60;50.00
3550;DHT22;45572;48.804;8.330;2023-06-26T14:34:43;30.30;50.00
3550;DHT22;45572;48.804;8.330;2023-06-26T14:37:11;30.40;50.60
3550;DHT22;45572;48.804;8.330;2023-06-26T14:39:40;30.60;51.30
3550;DHT22;45572;48.804;8.330;2023-06-26T14:42:09;30.60;49.90
3550;DHT22;45572;48.804;8.330;2023-06-26T14:44:38;30.30;50.40
3550;DHT22;45572;48.804;8.330;2023-06-26T14:47:06;30.50;50.40
3550;DHT22;45572;48.804;8.330;2023-06-26T14:49:39;30.50;49.10
3550;DHT22;45572;48.804;8.330;2023-06-26T14:52:09;30.60;49.20
3550;DHT22;45572;48.804;8.330;2023-06-26T14:54:37;30.50;48.70
3550;DHT22;45572;48.804;8.330;2023-06-26T14:57:06;30.40;49.20
3550;DHT22;45572;48.804;8.330;2023-06-26T14:59:34;30.60;50.10
3550;DHT22;45572;48.804;8.330;2023-06-26T15:02:05;30.80;48.10
3550;DHT22;45572;48.804;8.330;2023-06-26T15:04:33;30.80;47.30
3550;DHT22;45572;48.804;8.330;2023-06-26T15:07:05;30.70;48.70
3550;DHT22;45572;48.804;8.330;2023-06-26T15:09:33;30.80;46.90
3550;DHT22;45572;48.804;8.330;2023-06-26T15:12:01;30.60;47.60
3550;DHT22;45572;48.804;8.330;2023-06-26T15:14:32;30.80;46.90
3550;DHT22;45572;48.804;8.330;2023-06-26T15:17:00;30.60;47.50
3550;DHT22;45572;48.804;8.330;2023-06-26T15:19:28;30.30;46.20
3550;DHT22;45572;48.804;8.330;2023-06-26T15:21:55;30.20;46.20
3550;DHT22;45572;48.804;8.330;2023-06-26T15:24:25;30.00;45.60
3550;DHT22;45572;48.804;8.330;2023-06-26T15:26:53;30.20;46.60
3550;DHT22;45572;48.804;8.330;2023-06-26T15:29:22;30.30;46.00
3550;DHT22;45572;48.804;8.330;2023-06-26T15:31:51;30.40;45.10
3550;DHT22;45572;48.804;8.330;2023-06-26T15:34:19;30.10;43.10
3550;DHT22;45572;48.804;8.330;2023-06-26T15:36:48;30.00;45.00
3550;DHT22;45572;48.804;8.330;2023-06-26T15:39:16;30.00;43.80
3550;DHT22;45572;48.804;8.330;2023-06-26T15:41:45;30.00;44.70
3550;DHT22;45572;48.804;8.330;2023-06-26T15:44:13;30.10;44.80
3550;DHT22;45572;48.804;8.330;2023-06-26T15:46:41;30.20;44.30
3550;DHT22;45572;48.804;8.330;2023-06-26T15:49:11;30.30;44.80
3550;DHT22;45572;48.804;8.330;2023-06-26T15:51:42;30.50;44.10
3550;DHT22;45572;48.804;8.330;2023-06-26T15:54:13;30.50;43.90
3550;DHT22;45572;48.804;8.330;2023-06-26T15:56:45;30.40;43.40
3550;DHT22;45572;48.804;8.330;2023-06-26T15:59:15;30.40;43.50
3550;DHT22;45572;48.804;8.330;2023-06-26T16:01:45;30.40;43.30
3550;DHT22;45572;48.804;8.330;2023-06-26T16:04:18;30.30;43.30
3550;DHT22;45572;48.804;8.330;2023-06-26T16:06:48;30.00;43.70